sensor_id;sensor_type;location;lat;lon;timestamp;temperature;humidity
21246;DHT22;10781;50.928;4.440;2024-03-25T00:01:51;7.30;99.90
21246;DHT22;10781;50.928;4.440;2024-03-25T00:04:17;7.20;99.90
21246;DHT22;10781;50.928;4.440;2024-03-25T00:06:42;7.20;99.90
21246;DHT22;10781;50.928;4.440;2024-03-25T00:09:08;7.10;99.90
21246;DHT22;10781;50.928;4.440;2024-03-25T00:11:41;7.20;99.90
21246;DHT22;10781;50.928;4.440;2024-03-25T00:14:07;7.30;99.90
21246;DHT22;10781;50.928;4.440;2024-03-25T00:16:33;7.30;99.90
21246;DHT22;10781;50.928;4.440;2024-03-25T00:18:59;7.30;99.90
21246;DHT22;10781;50.928;4.440;2024-03-25T00:21:25;7.20;99.90
21246;DHT22;10781;50.928;4.440;2024-03-25T00:23:50;7.10;99.90
21246;DHT22;10781;50.928;4.440;2024-03-25T00:26:16;7.20;99.90
21246;DHT22;10781;50.928;4.440;2024-03-25T00:28:42;7.30;99.90
21246;DHT22;10781;50.928;4.440;2024-03-25T00:31:09;7.30;99.90
21246;DHT22;10781;50.928;4.440;2024-03-25T00:33:34;7.30;99.90
21246;DHT22;10781;50.928;4.440;2024-03-25T00:36:00;7.30;99.90
21246;DHT22;10781;50.928;4.440;2024-03-25T00:38:26;7.20;99.90
21246;DHT22;10781;50.928;4.440;2024-03-25T00:40:52;7.20;99.90
21246;DHT22;10781;50.928;4.440;2024-03-25T00:43:17;7.00;99.90
21246;DHT22;10781;50.928;4.440;2024-03-25T00:45:43;7.00;99.90
21246;DHT22;10781;50.928;4.440;2024-03-25T00:48:09;6.90;99.90
21246;DHT22;10781;50.928;4.440;2024-03-25T00:50:35;7.00;99.90
21246;DHT22;10781;50.928;4.440;2024-03-25T00:53:00;6.90;99.90
21246;DHT22;10781;50.928;4.440;2024-03-25T00:55:26;6.90;99.90
21246;DHT22;10781;50.928;4.440;2024-03-25T00:57:52;7.10;99.90
21246;DHT22;10781;50.928;4.440;2024-03-25T01:00:18;7.00;99.90
21246;DHT22;10781;50.928;4.440;2024-03-25T01:02:43;6.90;99.90
21246;DHT22;10781;50.928;4.440;2024-03-25T01:05:09;6.80;99.90
21246;DHT22;10781;50.928;4.440;2024-03-25T01:07:35;6.80;99.90
21246;DHT22;10781;50.928;4.440;2024-03-25T01:10:01;6.80;99.90
21246;DHT22;10781;50.928;4.440;2024-03-25T01:12:27;6.70;99.90
21246;DHT22;10781;50.928;4.440;2024-03-25T01:14:53;6.70;99.90
21246;DHT22;10781;50.928;4.440;2024-03-25T01:17:19;6.80;99.90
21246;DHT22;10781;50.928;4.440;2024-03-25T01:19:44;6.80;99.90
21246;DHT22;10781;50.928;4.440;2024-03-25T01:22:10;6.80;99.90
21246;DHT22;10781;50.928;4.440;2024-03-25T01:24:36;6.90;99.90
21246;DHT22;10781;50.928;4.440;2024-03-25T01:27:02;7.00;99.90
21246;DHT22;10781;50.928;4.440;2024-03-25T01:29:28;6.80;99.90
21246;DHT22;10781;50.928;4.440;2024-03-25T01:31:55;6.90;99.90
21246;DHT22;10781;50.928;4.440;2024-03-25T01:34:22;7.00;99.90
21246;DHT22;10781;50.928;4.440;2024-03-25T01:36:48;6.90;99.90
21246;DHT22;10781;50.928;4.440;2024-03-25T01:39:14;6.80;99.90
21246;DHT22;10781;50.928;4.440;2024-03-25T01:41:39;6.80;99.90
21246;DHT22;10781;50.928;4.440;2024-03-25T01:44:05;6.80;99.90
21246;DHT22;10781;50.928;4.440;2024-03-25T01:46:30;6.80;99.90
21246;DHT22;10781;50.928;4.440;2024-03-25T01:48:56;6.80;99.90
21246;DHT22;10781;50.928;4.440;2024-03-25T01:51:24;6.90;99.90
21246;DHT22;10781;50.928;4.440;2024-03-25T01:53:52;6.80;99.90
21246;DHT22;10781;50.928;4.440;2024-03-25T01:56:19;6.70;99.90
21246;DHT22;10781;50.928;4.440;2024-03-25T01:58:45;6.80;99.90
21246;DHT22;10781;50.928;4.440;2024-03-25T02:01:11;6.90;99.90
21246;DHT22;10781;50.928;4.440;2024-03-25T02:03:41;6.80;99.90
21246;DHT22;10781;50.928;4.440;2024-03-25T02:06:12;6.80;99.90
21246;DHT22;10781;50.928;4.440;2024-03-25T02:08:39;6.80;99.90
21246;DHT22;10781;50.928;4.440;2024-03-25T02:11:05;6.50;99.90
21246;DHT22;10781;50.928;4.440;2024-03-25T02:13:31;6.30;99.90
21246;DHT22;10781;50.928;4.440;2024-03-25T02:15:57;6.20;99.90
21246;DHT22;10781;50.928;4.440;2024-03-25T02:18:23;6.10;99.90
21246;DHT22;10781;50.928;4.440;2024-03-25T02:20:48;6.20;99.90
21246;DHT22;10781;50.928;4.440;2024-03-25T02:23:14;6.40;99.90
21246;DHT22;10781;50.928;4.440;2024-03-25T02:25:42;6.50;99.90
21246;DHT22;10781;50.928;4.440;2024-03-25T02:28:08;6.50;99.90
21246;DHT22;10781;50.928;4.440;2024-03-25T02:30:33;6.50;99.90
21246;DHT22;10781;50.928;4.440;2024-03-25T02:32:59;6.50;99.90
21246;DHT22;10781;50.928;4.440;2024-03-25T02:35:26;6.40;99.90
21246;DHT22;10781;50.928;4.440;2024-03-25T02:37:52;6.50;99.90
21246;DHT22;10781;50.928;4.440;2024-03-25T02:40:19;6.50;99.90
21246;DHT22;10781;50.928;4.440;2024-03-25T02:42:46;6.50;99.90
21246;DHT22;10781;50.928;4.440;2024-03-25T02:45:12;6.40;99.90
21246;DHT22;10781;50.928;4.440;2024-03-25T02:47:37;6.50;99.90
21246;DHT22;10781;50.928;4.440;2024-03-25T02:50:03;6.70;99.90
21246;DHT22;10781;50.928;4.440;2024-03-25T02:52:29;6.80;99.90
21246;DHT22;10781;50.928;4.440;2024-03-25T02:54:54;6.70;99.90
21246;DHT22;10781;50.928;4.440;2024-03-25T02:57:20;6.80;99.90
21246;DHT22;10781;50.928;4.440;2024-03-25T02:59:52;6.60;99.90
21246;DHT22;10781;50.928;4.440;2024-03-25T03:02:18;6.50;99.90
21246;DHT22;10781;50.928;4.440;2024-03-25T03:04:44;6.50;99.90
21246;DHT22;10781;50.928;4.440;2024-03-25T03:07:09;6.40;99.90
21246;DHT22;10781;50.928;4.440;2024-03-25T03:09:35;6.40;99.90
21246;DHT22;10781;50.928;4.440;2024-03-25T03:12:01;6.50;99.90
21246;DHT22;10781;50.928;4.440;2024-03-25T03:14:26;6.60;99.90
21246;DHT22;10781;50.928;4.440;2024-03-25T03:16:52;6.70;99.90
21246;DHT22;10781;50.928;4.440;2024-03-25T03:19:26;6.60;99.90
21246;DHT22;10781;50.928;4.440;2024-03-25T03:21:52;6.60;99.90
21246;DHT22;10781;50.928;4.440;2024-03-25T03:24:18;6.60;99.90
21246;DHT22;10781;50.928;4.440;2024-03-25T03:26:44;6.50;99.90
21246;DHT22;10781;50.928;4.440;2024-03-25T03:29:10;6.20;99.90
21246;DHT22;10781;50.928;4.440;2024-03-25T03:31:36;6.30;99.90
21246;DHT22;10781;50.928;4.440;2024-03-25T03:34:02;6.30;99.90
21246;DHT22;10781;50.928;4.440;2024-03-25T03:36:28;6.10;99.90
21246;DHT22;10781;50.928;4.440;2024-03-25T03:38:53;6.00;99.90
21246;DHT22;10781;50.928;4.440;2024-03-25T03:41:19;5.90;99.90
21246;DHT22;10781;50.928;4.440;2024-03-25T03:43:45;5.80;99.90
21246;DHT22;10781;50.928;4.440;2024-03-25T03:46:11;5.80;99.90
21246;DHT22;10781;50.928;4.440;2024-03-25T03:48:36;5.80;99.90
21246;DHT22;10781;50.928;4.440;2024-03-25T03:51:06;5.60;99.90
21246;DHT22;10781;50.928;4.440;2024-03-25T03:53:33;5.60;99.90
21246;DHT22;10781;50.928;4.440;2024-03-25T03:56:01;5.30;99.90
21246;DHT22;10781;50.928;4.440;2024-03-25T03:58:31;5.10;99.90
21246;DHT22;10781;50.928;4.440;2024-03-25T04:00:56;5.40;99.90
21246;DHT22;10781;50.928;4.440;2024-03-25T04:03:22;5.70;99.90
21246;DHT22;10781;50.928;4.440;2024-03-25T04:05:48;5.80;99.90
21246;DHT22;10781;50.928;4.440;2024-03-25T04:08:13;5.80;99.90
21246;DHT22;10781;50.928;4.440;2024-03-25T04:10:39;5.80;99.90
21246;DHT22;10781;50.928;4.440;2024-03-25T04:13:06;5.90;99.90
21246;DHT22;10781;50.928;4.440;2024-03-25T04:15:34;5.90;99.90
21246;DHT22;10781;50.928;4.440;2024-03-25T04:17:59;5.90;99.90
21246;DHT22;10781;50.928;4.440;2024-03-25T04:20:27;6.00;99.90
21246;DHT22;10781;50.928;4.440;2024-03-25T04:22:54;5.80;99.90
21246;DHT22;10781;50.928;4.440;2024-03-25T04:25:20;5.50;99.90
21246;DHT22;10781;50.928;4.440;2024-03-25T04:27:45;5.60;99.90
21246;DHT22;10781;50.928;4.440;2024-03-25T04:30:11;5.60;99.90
21246;DHT22;10781;50.928;4.440;2024-03-25T04:32:38;5.60;99.90
21246;DHT22;10781;50.928;4.440;2024-03-25T04:35:05;5.50;99.90
21246;DHT22;10781;50.928;4.440;2024-03-25T04:37:32;5.80;99.90
21246;DHT22;10781;50.928;4.440;2024-03-25T04:39:58;6.00;99.90
21246;DHT22;10781;50.928;4.440;2024-03-25T04:42:23;6.00;99.90
21246;DHT22;10781;50.928;4.440;2024-03-25T04:44:49;6.00;99.90
21246;DHT22;10781;50.928;4.440;2024-03-25T04:47:16;5.90;99.90
21246;DHT22;10781;50.928;4.440;2024-03-25T04:49:41;6.00;99.90
21246;DHT22;10781;50.928;4.440;2024-03-25T04:52:07;6.10;99.90
21246;DHT22;10781;50.928;4.440;2024-03-25T04:54:33;6.20;99.90
21246;DHT22;10781;50.928;4.440;2024-03-25T04:56:58;6.00;99.90
21246;DHT22;10781;50.928;4.440;2024-03-25T04:59:24;6.10;99.90
21246;DHT22;10781;50.928;4.440;2024-03-25T05:01:50;6.20;99.90
21246;DHT22;10781;50.928;4.440;2024-03-25T05:04:15;6.20;99.90
21246;DHT22;10781;50.928;4.440;2024-03-25T05:06:41;6.10;99.90
21246;DHT22;10781;50.928;4.440;2024-03-25T05:09:07;6.10;99.90
21246;DHT22;10781;50.928;4.440;2024-03-25T05:11:32;6.10;99.90
21246;DHT22;10781;50.928;4.440;2024-03-25T05:13:58;5.80;99.90
21246;DHT22;10781;50.928;4.440;2024-03-25T05:16:24;6.00;99.90
21246;DHT22;10781;50.928;4.440;2024-03-25T05:18:50;6.10;99.90
21246;DHT22;10781;50.928;4.440;2024-03-25T05:21:16;5.90;99.90
21246;DHT22;10781;50.928;4.440;2024-03-25T05:23:41;6.00;99.90
21246;DHT22;10781;50.928;4.440;2024-03-25T05:26:08;6.10;99.90
21246;DHT22;10781;50.928;4.440;2024-03-25T05:28:33;6.10;99.90
21246;DHT22;10781;50.928;4.440;2024-03-25T05:31:06;6.10;99.90
21246;DHT22;10781;50.928;4.440;2024-03-25T05:33:33;6.20;99.90
21246;DHT22;10781;50.928;4.440;2024-03-25T05:35:59;6.10;99.90
21246;DHT22;10781;50.928;4.440;2024-03-25T05:38:24;6.10;99.90
21246;DHT22;10781;50.928;4.440;2024-03-25T05:40:50;5.90;99.90
21246;DHT22;10781;50.928;4.440;2024-03-25T05:43:16;5.50;99.90
21246;DHT22;10781;50.928;4.440;2024-03-25T05:45:50;5.20;99.90
21246;DHT22;10781;50.928;4.440;2024-03-25T05:48:16;4.90;99.90
21246;DHT22;10781;50.928;4.440;2024-03-25T05:50:41;4.90;99.90
21246;DHT22;10781;50.928;4.440;2024-03-25T05:53:07;5.10;99.90
21246;DHT22;10781;50.928;4.440;2024-03-25T05:55:33;5.10;99.90
21246;DHT22;10781;50.928;4.440;2024-03-25T05:57:59;5.10;99.90
21246;DHT22;10781;50.928;4.440;2024-03-25T06:00:24;5.10;99.90
21246;DHT22;10781;50.928;4.440;2024-03-25T06:02:51;5.20;99.90
21246;DHT22;10781;50.928;4.440;2024-03-25T06:05:19;5.50;99.90
21246;DHT22;10781;50.928;4.440;2024-03-25T06:07:45;5.80;99.90
21246;DHT22;10781;50.928;4.440;2024-03-25T06:10:10;6.00;99.90
21246;DHT22;10781;50.928;4.440;2024-03-25T06:12:36;6.00;99.90
21246;DHT22;10781;50.928;4.440;2024-03-25T06:15:02;6.10;99.90
21246;DHT22;10781;50.928;4.440;2024-03-25T06:17:27;6.20;99.90
21246;DHT22;10781;50.928;4.440;2024-03-25T06:19:53;6.50;99.90
21246;DHT22;10781;50.928;4.440;2024-03-25T06:22:19;6.80;99.90
21246;DHT22;10781;50.928;4.440;2024-03-25T06:24:44;6.90;99.90
21246;DHT22;10781;50.928;4.440;2024-03-25T06:27:10;7.10;99.90
21246;DHT22;10781;50.928;4.440;2024-03-25T06:29:35;7.30;99.90
21246;DHT22;10781;50.928;4.440;2024-03-25T06:32:01;7.60;99.90
21246;DHT22;10781;50.928;4.440;2024-03-25T06:34:46;7.60;99.90
21246;DHT22;10781;50.928;4.440;2024-03-25T06:37:11;7.70;99.90
21246;DHT22;10781;50.928;4.440;2024-03-25T06:39:37;7.90;99.90
21246;DHT22;10781;50.928;4.440;2024-03-25T06:42:03;8.00;99.90
21246;DHT22;10781;50.928;4.440;2024-03-25T06:44:28;8.20;99.90
21246;DHT22;10781;50.928;4.440;2024-03-25T06:46:54;8.20;99.90
21246;DHT22;10781;50.928;4.440;2024-03-25T06:49:21;8.20;99.90
21246;DHT22;10781;50.928;4.440;2024-03-25T06:51:47;8.20;99.90
21246;DHT22;10781;50.928;4.440;2024-03-25T06:54:12;8.20;99.90
21246;DHT22;10781;50.928;4.440;2024-03-25T06:56:38;8.10;99.90
21246;DHT22;10781;50.928;4.440;2024-03-25T06:59:03;8.20;99.90
21246;DHT22;10781;50.928;4.440;2024-03-25T07:01:29;8.30;99.90
21246;DHT22;10781;50.928;4.440;2024-03-25T07:03:55;8.30;99.90
21246;DHT22;10781;50.928;4.440;2024-03-25T07:06:20;8.50;99.90
21246;DHT22;10781;50.928;4.440;2024-03-25T07:08:46;8.60;99.90
21246;DHT22;10781;50.928;4.440;2024-03-25T07:11:13;8.90;99.90
21246;DHT22;10781;50.928;4.440;2024-03-25T07:13:39;9.20;99.90
21246;DHT22;10781;50.928;4.440;2024-03-25T07:16:04;9.30;99.90
21246;DHT22;10781;50.928;4.440;2024-03-25T07:18:30;9.50;99.90
21246;DHT22;10781;50.928;4.440;2024-03-25T07:20:56;9.90;99.90
21246;DHT22;10781;50.928;4.440;2024-03-25T07:23:21;10.30;99.90
21246;DHT22;10781;50.928;4.440;2024-03-25T07:25:47;10.40;99.90
21246;DHT22;10781;50.928;4.440;2024-03-25T07:28:12;10.90;99.90
21246;DHT22;10781;50.928;4.440;2024-03-25T07:30:38;11.20;99.90
21246;DHT22;10781;50.928;4.440;2024-03-25T07:33:04;11.70;99.90
21246;DHT22;10781;50.928;4.440;2024-03-25T07:35:30;12.40;99.90
21246;DHT22;10781;50.928;4.440;2024-03-25T07:37:56;12.90;99.90
21246;DHT22;10781;50.928;4.440;2024-03-25T07:40:22;13.40;99.90
21246;DHT22;10781;50.928;4.440;2024-03-25T07:42:48;13.40;99.90
21246;DHT22;10781;50.928;4.440;2024-03-25T07:45:15;14.00;99.90
21246;DHT22;10781;50.928;4.440;2024-03-25T07:47:41;14.50;99.90
21246;DHT22;10781;50.928;4.440;2024-03-25T07:50:07;14.90;99.90
21246;DHT22;10781;50.928;4.440;2024-03-25T07:52:32;14.90;99.90
21246;DHT22;10781;50.928;4.440;2024-03-25T07:54:59;15.00;99.90
21246;DHT22;10781;50.928;4.440;2024-03-25T07:57:24;16.00;99.90
21246;DHT22;10781;50.928;4.440;2024-03-25T07:59:50;16.50;99.90
21246;DHT22;10781;50.928;4.440;2024-03-25T08:02:19;17.10;99.90
21246;DHT22;10781;50.928;4.440;2024-03-25T08:04:45;17.40;99.90
21246;DHT22;10781;50.928;4.440;2024-03-25T08:07:10;17.60;99.90
21246;DHT22;10781;50.928;4.440;2024-03-25T08:09:36;16.70;99.90
21246;DHT22;10781;50.928;4.440;2024-03-25T08:12:01;16.70;99.90
21246;DHT22;10781;50.928;4.440;2024-03-25T08:14:27;16.90;99.90
21246;DHT22;10781;50.928;4.440;2024-03-25T08:16:52;16.50;99.90
21246;DHT22;10781;50.928;4.440;2024-03-25T08:19:18;16.10;99.90
21246;DHT22;10781;50.928;4.440;2024-03-25T08:21:44;15.60;99.90
21246;DHT22;10781;50.928;4.440;2024-03-25T08:24:09;16.10;99.90
21246;DHT22;10781;50.928;4.440;2024-03-25T08:26:35;16.40;99.90
21246;DHT22;10781;50.928;4.440;2024-03-25T08:29:00;16.70;99.90
21246;DHT22;10781;50.928;4.440;2024-03-25T08:31:26;17.00;99.90
21246;DHT22;10781;50.928;4.440;2024-03-25T08:33:51;17.90;99.90
21246;DHT22;10781;50.928;4.440;2024-03-25T08:36:17;19.50;99.90
21246;DHT22;10781;50.928;4.440;2024-03-25T08:38:46;19.50;99.90
21246;DHT22;10781;50.928;4.440;2024-03-25T08:41:11;20.50;99.90
21246;DHT22;10781;50.928;4.440;2024-03-25T08:43:37;20.90;99.90
21246;DHT22;10781;50.928;4.440;2024-03-25T08:46:02;21.00;99.90
21246;DHT22;10781;50.928;4.440;2024-03-25T08:48:29;20.60;99.90
21246;DHT22;10781;50.928;4.440;2024-03-25T08:50:55;21.50;99.90
21246;DHT22;10781;50.928;4.440;2024-03-25T08:53:20;21.90;99.90
21246;DHT22;10781;50.928;4.440;2024-03-25T08:55:47;22.20;99.90
21246;DHT22;10781;50.928;4.440;2024-03-25T08:58:14;19.90;99.90
21246;DHT22;10781;50.928;4.440;2024-03-25T09:00:40;19.20;99.90
21246;DHT22;10781;50.928;4.440;2024-03-25T09:03:06;20.40;99.90
21246;DHT22;10781;50.928;4.440;2024-03-25T09:05:31;21.60;99.90
21246;DHT22;10781;50.928;4.440;2024-03-25T09:07:57;19.70;99.90
21246;DHT22;10781;50.928;4.440;2024-03-25T09:10:24;19.40;99.90
21246;DHT22;10781;50.928;4.440;2024-03-25T09:13:09;18.60;99.90
21246;DHT22;10781;50.928;4.440;2024-03-25T09:15:35;19.90;99.90
21246;DHT22;10781;50.928;4.440;2024-03-25T09:18:00;21.30;99.90
21246;DHT22;10781;50.928;4.440;2024-03-25T09:20:26;21.00;99.90
21246;DHT22;10781;50.928;4.440;2024-03-25T09:22:52;19.70;99.90
21246;DHT22;10781;50.928;4.440;2024-03-25T09:25:18;20.40;99.90
21246;DHT22;10781;50.928;4.440;2024-03-25T09:27:47;22.00;99.90
21246;DHT22;10781;50.928;4.440;2024-03-25T09:30:13;24.40;99.90
21246;DHT22;10781;50.928;4.440;2024-03-25T09:32:39;23.30;94.20
21246;DHT22;10781;50.928;4.440;2024-03-25T09:35:08;24.30;93.70
21246;DHT22;10781;50.928;4.440;2024-03-25T09:37:34;26.10;90.60
21246;DHT22;10781;50.928;4.440;2024-03-25T09:40:00;27.10;84.60
21246;DHT22;10781;50.928;4.440;2024-03-25T09:42:27;26.30;77.30
21246;DHT22;10781;50.928;4.440;2024-03-25T09:44:56;25.30;79.10
21246;DHT22;10781;50.928;4.440;2024-03-25T09:47:22;23.50;78.40
21246;DHT22;10781;50.928;4.440;2024-03-25T09:49:49;21.40;82.80
21246;DHT22;10781;50.928;4.440;2024-03-25T09:52:17;18.80;89.80
21246;DHT22;10781;50.928;4.440;2024-03-25T09:54:44;18.10;91.30
21246;DHT22;10781;50.928;4.440;2024-03-25T09:57:12;18.20;94.00
21246;DHT22;10781;50.928;4.440;2024-03-25T09:59:39;18.20;93.70
21246;DHT22;10781;50.928;4.440;2024-03-25T10:02:05;20.30;93.10
21246;DHT22;10781;50.928;4.440;2024-03-25T10:04:32;22.40;89.70
21246;DHT22;10781;50.928;4.440;2024-03-25T10:06:58;23.30;82.50
21246;DHT22;10781;50.928;4.440;2024-03-25T10:09:24;23.90;83.30
21246;DHT22;10781;50.928;4.440;2024-03-25T10:11:51;23.90;78.00
21246;DHT22;10781;50.928;4.440;2024-03-25T10:14:16;23.10;82.70
21246;DHT22;10781;50.928;4.440;2024-03-25T10:16:43;21.90;89.10
21246;DHT22;10781;50.928;4.440;2024-03-25T10:19:09;22.00;86.30
21246;DHT22;10781;50.928;4.440;2024-03-25T10:21:35;23.50;83.70
21246;DHT22;10781;50.928;4.440;2024-03-25T10:24:01;23.80;85.90
21246;DHT22;10781;50.928;4.440;2024-03-25T10:26:31;25.50;80.10
21246;DHT22;10781;50.928;4.440;2024-03-25T10:29:05;27.10;76.30
21246;DHT22;10781;50.928;4.440;2024-03-25T10:31:31;27.30;74.40
21246;DHT22;10781;50.928;4.440;2024-03-25T10:33:57;28.50;73.70
21246;DHT22;10781;50.928;4.440;2024-03-25T10:36:24;27.60;67.70
21246;DHT22;10781;50.928;4.440;2024-03-25T10:38:54;25.50;71.90
21246;DHT22;10781;50.928;4.440;2024-03-25T10:41:21;24.90;74.80
21246;DHT22;10781;50.928;4.440;2024-03-25T10:43:48;23.50;75.90
21246;DHT22;10781;50.928;4.440;2024-03-25T10:46:22;23.70;77.20
21246;DHT22;10781;50.928;4.440;2024-03-25T10:48:54;25.40;67.40
21246;DHT22;10781;50.928;4.440;2024-03-25T10:51:24;27.50;63.70
21246;DHT22;10781;50.928;4.440;2024-03-25T10:53:52;28.60;64.00
21246;DHT22;10781;50.928;4.440;2024-03-25T10:56:21;27.90;58.40
21246;DHT22;10781;50.928;4.440;2024-03-25T10:58:48;23.30;59.20
21246;DHT22;10781;50.928;4.440;2024-03-25T11:01:18;19.90;68.10
21246;DHT22;10781;50.928;4.440;2024-03-25T11:03:46;20.30;70.30
21246;DHT22;10781;50.928;4.440;2024-03-25T11:06:13;21.20;71.80
21246;DHT22;10781;50.928;4.440;2024-03-25T11:08:39;19.80;71.40
21246;DHT22;10781;50.928;4.440;2024-03-25T11:11:07;20.30;72.70
21246;DHT22;10781;50.928;4.440;2024-03-25T11:13:33;22.10;69.30
21246;DHT22;10781;50.928;4.440;2024-03-25T11:15:59;22.20;68.00
21246;DHT22;10781;50.928;4.440;2024-03-25T11:18:25;21.60;66.70
21246;DHT22;10781;50.928;4.440;2024-03-25T11:21:04;19.70;68.40
21246;DHT22;10781;50.928;4.440;2024-03-25T11:24:05;18.80;72.80
21246;DHT22;10781;50.928;4.440;2024-03-25T11:26:31;17.90;74.20
21246;DHT22;10781;50.928;4.440;2024-03-25T11:29:00;17.20;75.30
21246;DHT22;10781;50.928;4.440;2024-03-25T11:31:26;16.70;72.80
21246;DHT22;10781;50.928;4.440;2024-03-25T11:33:52;16.40;73.30
21246;DHT22;10781;50.928;4.440;2024-03-25T11:36:18;16.80;73.70
21246;DHT22;10781;50.928;4.440;2024-03-25T11:38:46;19.20;74.50
21246;DHT22;10781;50.928;4.440;2024-03-25T11:41:12;20.10;69.00
21246;DHT22;10781;50.928;4.440;2024-03-25T11:43:37;18.50;74.20
21246;DHT22;10781;50.928;4.440;2024-03-25T11:46:03;18.60;71.90
21246;DHT22;10781;50.928;4.440;2024-03-25T11:48:29;18.30;74.00
21246;DHT22;10781;50.928;4.440;2024-03-25T11:50:55;20.30;72.10
21246;DHT22;10781;50.928;4.440;2024-03-25T11:53:21;21.90;67.20
21246;DHT22;10781;50.928;4.440;2024-03-25T11:55:47;23.00;64.10
21246;DHT22;10781;50.928;4.440;2024-03-25T11:58:14;23.30;65.60
21246;DHT22;10781;50.928;4.440;2024-03-25T12:00:46;21.40;64.10
21246;DHT22;10781;50.928;4.440;2024-03-25T12:03:15;19.80;68.60
21246;DHT22;10781;50.928;4.440;2024-03-25T12:05:44;20.40;67.10
21246;DHT22;10781;50.928;4.440;2024-03-25T12:08:10;22.80;63.90
21246;DHT22;10781;50.928;4.440;2024-03-25T12:10:37;21.20;64.40
21246;DHT22;10781;50.928;4.440;2024-03-25T12:13:21;20.00;64.60
21246;DHT22;10781;50.928;4.440;2024-03-25T12:15:47;19.40;67.70
21246;DHT22;10781;50.928;4.440;2024-03-25T12:18:14;19.50;69.70
21246;DHT22;10781;50.928;4.440;2024-03-25T12:20:40;20.50;66.50
21246;DHT22;10781;50.928;4.440;2024-03-25T12:23:07;18.70;67.90
21246;DHT22;10781;50.928;4.440;2024-03-25T12:25:33;19.70;69.40
21246;DHT22;10781;50.928;4.440;2024-03-25T12:27:58;21.30;68.20
21246;DHT22;10781;50.928;4.440;2024-03-25T12:30:24;23.00;63.70
21246;DHT22;10781;50.928;4.440;2024-03-25T12:32:51;22.00;62.70
21246;DHT22;10781;50.928;4.440;2024-03-25T12:35:18;20.30;63.60
21246;DHT22;10781;50.928;4.440;2024-03-25T12:37:45;18.50;66.10
21246;DHT22;10781;50.928;4.440;2024-03-25T12:40:13;17.30;69.50
21246;DHT22;10781;50.928;4.440;2024-03-25T12:42:40;16.90;69.90
21246;DHT22;10781;50.928;4.440;2024-03-25T12:45:06;16.40;72.10
21246;DHT22;10781;50.928;4.440;2024-03-25T12:47:32;17.10;70.10
21246;DHT22;10781;50.928;4.440;2024-03-25T12:50:01;19.00;68.40
21246;DHT22;10781;50.928;4.440;2024-03-25T12:52:26;20.30;62.40
21246;DHT22;10781;50.928;4.440;2024-03-25T12:54:52;19.60;65.40
21246;DHT22;10781;50.928;4.440;2024-03-25T12:57:17;20.00;65.80
21246;DHT22;10781;50.928;4.440;2024-03-25T12:59:44;20.50;65.90
21246;DHT22;10781;50.928;4.440;2024-03-25T13:02:12;19.90;64.80
21246;DHT22;10781;50.928;4.440;2024-03-25T13:04:38;18.60;66.50
21246;DHT22;10781;50.928;4.440;2024-03-25T13:07:05;18.40;67.20
21246;DHT22;10781;50.928;4.440;2024-03-25T13:09:31;18.20;71.00
21246;DHT22;10781;50.928;4.440;2024-03-25T13:11:57;18.80;70.40
21246;DHT22;10781;50.928;4.440;2024-03-25T13:14:23;20.10;67.10
21246;DHT22;10781;50.928;4.440;2024-03-25T13:16:48;21.80;67.70
21246;DHT22;10781;50.928;4.440;2024-03-25T13:19:14;20.40;64.60
21246;DHT22;10781;50.928;4.440;2024-03-25T13:21:40;20.20;65.00
21246;DHT22;10781;50.928;4.440;2024-03-25T13:24:06;20.90;64.40
21246;DHT22;10781;50.928;4.440;2024-03-25T13:26:32;20.30;64.30
21246;DHT22;10781;50.928;4.440;2024-03-25T13:28:58;19.90;66.10
21246;DHT22;10781;50.928;4.440;2024-03-25T13:31:24;19.70;65.30
21246;DHT22;10781;50.928;4.440;2024-03-25T13:33:49;19.10;66.40
21246;DHT22;10781;50.928;4.440;2024-03-25T13:36:17;19.10;66.70
21246;DHT22;10781;50.928;4.440;2024-03-25T13:38:43;20.60;65.90
21246;DHT22;10781;50.928;4.440;2024-03-25T13:41:17;20.20;64.60
21246;DHT22;10781;50.928;4.440;2024-03-25T13:43:47;21.10;64.30
21246;DHT22;10781;50.928;4.440;2024-03-25T13:46:12;21.30;62.70
21246;DHT22;10781;50.928;4.440;2024-03-25T13:48:38;19.80;64.20
21246;DHT22;10781;50.928;4.440;2024-03-25T13:51:04;19.70;65.70
21246;DHT22;10781;50.928;4.440;2024-03-25T13:53:30;19.00;68.50
21246;DHT22;10781;50.928;4.440;2024-03-25T13:55:55;19.20;68.80
21246;DHT22;10781;50.928;4.440;2024-03-25T13:58:21;19.80;64.50
21246;DHT22;10781;50.928;4.440;2024-03-25T14:00:47;20.30;63.00
21246;DHT22;10781;50.928;4.440;2024-03-25T14:03:12;20.00;64.70
21246;DHT22;10781;50.928;4.440;2024-03-25T14:05:39;21.50;62.40
21246;DHT22;10781;50.928;4.440;2024-03-25T14:08:04;20.90;62.10
21246;DHT22;10781;50.928;4.440;2024-03-25T14:10:30;20.40;62.40
21246;DHT22;10781;50.928;4.440;2024-03-25T14:12:56;19.30;64.20
21246;DHT22;10781;50.928;4.440;2024-03-25T14:15:22;18.70;65.60
21246;DHT22;10781;50.928;4.440;2024-03-25T14:17:47;19.10;67.10
21246;DHT22;10781;50.928;4.440;2024-03-25T14:20:13;19.90;66.40
21246;DHT22;10781;50.928;4.440;2024-03-25T14:22:38;19.40;65.10
21246;DHT22;10781;50.928;4.440;2024-03-25T14:25:04;19.50;64.10
21246;DHT22;10781;50.928;4.440;2024-03-25T14:27:30;19.10;65.80
21246;DHT22;10781;50.928;4.440;2024-03-25T14:29:56;18.90;64.80
21246;DHT22;10781;50.928;4.440;2024-03-25T14:32:22;18.30;65.50
21246;DHT22;10781;50.928;4.440;2024-03-25T14:34:48;18.70;64.50
21246;DHT22;10781;50.928;4.440;2024-03-25T14:37:14;18.80;64.70
21246;DHT22;10781;50.928;4.440;2024-03-25T14:39:41;18.30;64.70
21246;DHT22;10781;50.928;4.440;2024-03-25T14:42:10;17.70;67.20
21246;DHT22;10781;50.928;4.440;2024-03-25T14:44:36;18.40;66.40
21246;DHT22;10781;50.928;4.440;2024-03-25T14:47:03;17.70;67.50
21246;DHT22;10781;50.928;4.440;2024-03-25T14:49:28;17.90;68.30
21246;DHT22;10781;50.928;4.440;2024-03-25T14:51:54;18.20;65.60
21246;DHT22;10781;50.928;4.440;2024-03-25T14:54:20;18.20;66.90
21246;DHT22;10781;50.928;4.440;2024-03-25T14:56:46;17.90;67.20
21246;DHT22;10781;50.928;4.440;2024-03-25T14:59:12;17.20;67.40
21246;DHT22;10781;50.928;4.440;2024-03-25T15:01:38;16.20;70.60
21246;DHT22;10781;50.928;4.440;2024-03-25T15:04:04;16.70;71.00
21246;DHT22;10781;50.928;4.440;2024-03-25T15:06:30;17.00;69.60
21246;DHT22;10781;50.928;4.440;2024-03-25T15:08:57;17.70;68.90
21246;DHT22;10781;50.928;4.440;2024-03-25T15:11:23;17.60;67.90
21246;DHT22;10781;50.928;4.440;2024-03-25T15:13:50;17.90;67.20
21246;DHT22;10781;50.928;4.440;2024-03-25T15:16:16;17.40;68.90
21246;DHT22;10781;50.928;4.440;2024-03-25T15:18:42;17.00;68.70
21246;DHT22;10781;50.928;4.440;2024-03-25T15:21:07;17.20;68.10
21246;DHT22;10781;50.928;4.440;2024-03-25T15:23:33;16.90;69.10
21246;DHT22;10781;50.928;4.440;2024-03-25T15:25:58;16.70;71.20
21246;DHT22;10781;50.928;4.440;2024-03-25T15:28:24;16.60;73.00
21246;DHT22;10781;50.928;4.440;2024-03-25T15:30:50;17.00;72.10
21246;DHT22;10781;50.928;4.440;2024-03-25T15:33:16;17.50;70.00